SESA/SNC METAR and TAF weather

Enter ICAO airport designator
Station Type Date Time Source
SESA METAR 2022/06/26 23:00 UTC NOAA

SESA 262300Z 23010KT 9999 OVC023 22/19 Q1013 RMK A2994


Station Type Date Time Source
SESA Decoded METAR 2022/06/26 23:00 UTC NOAA

Salinas / General Ulpiano Paez, Ecuador (SESA) 02-12S 080-59W 8M
Jun 26, 2022 - 07:00 PM EDT / 2022.06.26 2300 UTC
Wind: from the SW (230 degrees) at 12 MPH (10 KT):0
Visibility: greater than 7 mile(s):0
Sky conditions: overcast
Temperature: 71 F (22 C)
Dew Point: 66 F (19 C)
Relative Humidity: 83%
Pressure (altimeter): 29.91 in. Hg (1013 hPa)
ob: SESA 262300Z 23010KT 9999 OVC023 22/19 Q1013 RMK A2994
cycle: 23

Station Type Date Time Source
SESA TAF UTC NOAA

Error!

Example: see airport list